Overview Statistics Trail Chart Weather Telemetry Raw packets
 

This is the latest recevied weather packets stored in our database for station/object HI3LT-13. If no packets are shown the sender has not sent any weather packets the latest 10 day(s).

<< 1 2 3 4 >>
Time Temp. Humidity Pressure Rain* Wind** Luminosity Snow
1788620645 32.78° C 73% 1014 hPa 0 mm - - -
1788620044 32.78° C 76% 1014 hPa 0 mm - - -
1788619444 32.78° C 79% 1014 hPa 0 mm - - -
1788618843 31.11° C 80% 1014 hPa 0 mm - - -
1788618242 30.56° C 81% 1014 hPa 0 mm - - -
1788617642 31.11° C 88% 1014 hPa 0 mm - - -
1788617041 29.44° C 88% 1014 hPa 0 mm - - -
1788616441 30° C 91% 1014 hPa 0 mm - - -
1788615840 30° C 86% 1014 hPa 0 mm - - -
1788615239 29.44° C 87% 1014 hPa 0 mm - - -
1788614639 28.33° C 83% 1014 hPa 0 mm - - -
1788614038 27.78° C 82% 1014 hPa 0 mm - - -
1788613437 30° C 91% 1014 hPa 0 mm - - -
1788612837 28.89° C 91% 1014 hPa 0 mm - - -
1788612236 27.22° C 91% 1014 hPa 0 mm - - -
1788611635 27.22° C 91% 1014 hPa 0 mm - - -
1788611034 27.22° C 93% 1014 hPa 0 mm - - -
1788610433 25.56° C 97% 1014 hPa 0 mm - - -
1788609832 27.22° C 97% 1014 hPa 0 mm - - -
1788609232 25.56° C 96% 1014 hPa 0 mm - - -
1788608631 26.11° C 97% 1014 hPa 0 mm - - -
1788608030 24.44° C 96% 1014 hPa 0 mm - - -
1788607429 22.78° C 95% 1014 hPa 0 mm - - -
1788606828 23.89° C 97% 1014 hPa 0 mm - - -
1788606227 22.78° C 94% 1014 hPa 0 mm - - -

* Rain latest hour (hover to see other rain measurements)
** Current wind speed in m/s (hover to see current wind gust speed)